sensor_id;sensor_type;location;lat;lon;timestamp;P1;durP1;ratioP1;P2;durP2;ratioP2
50549;SDS011;36505;52.512;13.460;2024-03-02T00:01:11;46.80;;;23.92;;
50549;SDS011;36505;52.512;13.460;2024-03-02T00:03:37;45.42;;;23.75;;
50549;SDS011;36505;52.512;13.460;2024-03-02T00:06:03;42.88;;;23.48;;
50549;SDS011;36505;52.512;13.460;2024-03-02T00:08:29;46.40;;;23.25;;
50549;SDS011;36505;52.512;13.460;2024-03-02T00:10:58;55.58;;;26.92;;
50549;SDS011;36505;52.512;13.460;2024-03-02T00:13:25;45.75;;;26.33;;
50549;SDS011;36505;52.512;13.460;2024-03-02T00:15:54;53.83;;;26.77;;
50549;SDS011;36505;52.512;13.460;2024-03-02T00:18:24;45.10;;;23.92;;
50549;SDS011;36505;52.512;13.460;2024-03-02T00:20:52;48.30;;;25.52;;
50549;SDS011;36505;52.512;13.460;2024-03-02T00:23:24;49.15;;;25.65;;
50549;SDS011;36505;52.512;13.460;2024-03-02T00:25:53;60.63;;;26.13;;
50549;SDS011;36505;52.512;13.460;2024-03-02T00:33:52;45.92;;;25.02;;
50549;SDS011;36505;52.512;13.460;2024-03-02T00:36:26;48.85;;;26.27;;
50549;SDS011;36505;52.512;13.460;2024-03-02T00:38:53;55.63;;;25.65;;
50549;SDS011;36505;52.512;13.460;2024-03-02T00:43:54;56.03;;;27.73;;
50549;SDS011;36505;52.512;13.460;2024-03-02T00:46:35;59.15;;;26.85;;
50549;SDS011;36505;52.512;13.460;2024-03-02T00:49:02;68.90;;;31.08;;
50549;SDS011;36505;52.512;13.460;2024-03-02T00:51:30;60.95;;;27.50;;
50549;SDS011;36505;52.512;13.460;2024-03-02T00:54:00;53.78;;;27.83;;
50549;SDS011;36505;52.512;13.460;2024-03-02T00:56:29;61.40;;;30.23;;
50549;SDS011;36505;52.512;13.460;2024-03-02T00:58:55;61.90;;;29.73;;
50549;SDS011;36505;52.512;13.460;2024-03-02T01:01:20;56.08;;;29.35;;
50549;SDS011;36505;52.512;13.460;2024-03-02T01:03:46;54.65;;;29.27;;
50549;SDS011;36505;52.512;13.460;2024-03-02T01:06:12;52.22;;;28.60;;
50549;SDS011;36505;52.512;13.460;2024-03-02T01:08:39;54.33;;;27.73;;
50549;SDS011;36505;52.512;13.460;2024-03-02T01:11:05;58.42;;;28.50;;
50549;SDS011;36505;52.512;13.460;2024-03-02T01:13:30;56.75;;;28.52;;
50549;SDS011;36505;52.512;13.460;2024-03-02T01:15:56;54.45;;;27.13;;
50549;SDS011;36505;52.512;13.460;2024-03-02T01:18:23;67.72;;;31.38;;
50549;SDS011;36505;52.512;13.460;2024-03-02T01:20:49;60.20;;;30.30;;
50549;SDS011;36505;52.512;13.460;2024-03-02T01:23:20;52.20;;;27.95;;
50549;SDS011;36505;52.512;13.460;2024-03-02T01:25:46;56.92;;;29.48;;
50549;SDS011;36505;52.512;13.460;2024-03-02T01:28:12;55.67;;;27.90;;
50549;SDS011;36505;52.512;13.460;2024-03-02T01:30:39;52.72;;;27.38;;
50549;SDS011;36505;52.512;13.460;2024-03-02T01:33:04;52.97;;;29.50;;
50549;SDS011;36505;52.512;13.460;2024-03-02T01:35:31;58.72;;;29.13;;
50549;SDS011;36505;52.512;13.460;2024-03-02T01:37:57;55.28;;;28.85;;
50549;SDS011;36505;52.512;13.460;2024-03-02T01:40:23;54.90;;;28.35;;
50549;SDS011;36505;52.512;13.460;2024-03-02T01:42:51;52.10;;;27.52;;
50549;SDS011;36505;52.512;13.460;2024-03-02T01:45:17;47.65;;;26.75;;
50549;SDS011;36505;52.512;13.460;2024-03-02T01:47:42;56.47;;;28.80;;
50549;SDS011;36505;52.512;13.460;2024-03-02T01:50:08;53.53;;;27.27;;
50549;SDS011;36505;52.512;13.460;2024-03-02T01:52:36;61.42;;;28.50;;
50549;SDS011;36505;52.512;13.460;2024-03-02T01:55:22;55.58;;;28.52;;
50549;SDS011;36505;52.512;13.460;2024-03-02T01:57:48;50.50;;;26.77;;
50549;SDS011;36505;52.512;13.460;2024-03-02T02:00:15;60.88;;;29.05;;
50549;SDS011;36505;52.512;13.460;2024-03-02T02:02:41;52.55;;;28.38;;
50549;SDS011;36505;52.512;13.460;2024-03-02T02:05:07;53.88;;;28.52;;
50549;SDS011;36505;52.512;13.460;2024-03-02T02:07:32;52.33;;;26.40;;
50549;SDS011;36505;52.512;13.460;2024-03-02T02:09:59;54.88;;;28.40;;
50549;SDS011;36505;52.512;13.460;2024-03-02T02:12:26;55.28;;;29.10;;
50549;SDS011;36505;52.512;13.460;2024-03-02T02:14:51;56.38;;;27.75;;
50549;SDS011;36505;52.512;13.460;2024-03-02T02:17:17;54.00;;;28.73;;
50549;SDS011;36505;52.512;13.460;2024-03-02T02:19:42;59.47;;;30.73;;
50549;SDS011;36505;52.512;13.460;2024-03-02T02:22:08;58.15;;;30.20;;
50549;SDS011;36505;52.512;13.460;2024-03-02T02:24:40;53.65;;;27.88;;
50549;SDS011;36505;52.512;13.460;2024-03-02T02:27:06;56.22;;;29.35;;
50549;SDS011;36505;52.512;13.460;2024-03-02T02:29:32;57.00;;;29.42;;
50549;SDS011;36505;52.512;13.460;2024-03-02T02:31:57;51.60;;;28.95;;
50549;SDS011;36505;52.512;13.460;2024-03-02T02:34:23;52.17;;;28.17;;
50549;SDS011;36505;52.512;13.460;2024-03-02T02:36:49;49.75;;;28.42;;
50549;SDS011;36505;52.512;13.460;2024-03-02T02:39:15;60.25;;;28.80;;
50549;SDS011;36505;52.512;13.460;2024-03-02T02:41:42;64.93;;;29.73;;
50549;SDS011;36505;52.512;13.460;2024-03-02T02:44:08;54.65;;;28.10;;
50549;SDS011;36505;52.512;13.460;2024-03-02T02:46:33;56.15;;;29.77;;
50549;SDS011;36505;52.512;13.460;2024-03-02T02:48:58;56.35;;;29.98;;
50549;SDS011;36505;52.512;13.460;2024-03-02T02:51:24;58.38;;;30.35;;
50549;SDS011;36505;52.512;13.460;2024-03-02T02:53:50;66.85;;;31.15;;
50549;SDS011;36505;52.512;13.460;2024-03-02T02:56:16;60.08;;;31.08;;
50549;SDS011;36505;52.512;13.460;2024-03-02T02:58:41;57.42;;;29.13;;
50549;SDS011;36505;52.512;13.460;2024-03-02T03:01:07;60.20;;;29.15;;
50549;SDS011;36505;52.512;13.460;2024-03-02T03:03:32;59.03;;;29.00;;
50549;SDS011;36505;52.512;13.460;2024-03-02T03:05:58;58.03;;;30.48;;
50549;SDS011;36505;52.512;13.460;2024-03-02T03:08:23;53.38;;;28.00;;
50549;SDS011;36505;52.512;13.460;2024-03-02T03:10:49;57.28;;;27.33;;
50549;SDS011;36505;52.512;13.460;2024-03-02T03:13:14;61.08;;;29.05;;
50549;SDS011;36505;52.512;13.460;2024-03-02T03:15:40;59.38;;;30.80;;
50549;SDS011;36505;52.512;13.460;2024-03-02T03:18:05;55.47;;;29.25;;
50549;SDS011;36505;52.512;13.460;2024-03-02T03:20:32;51.65;;;27.27;;
50549;SDS011;36505;52.512;13.460;2024-03-02T03:22:58;47.63;;;26.77;;
50549;SDS011;36505;52.512;13.460;2024-03-02T03:25:24;53.50;;;27.50;;
50549;SDS011;36505;52.512;13.460;2024-03-02T03:27:49;49.10;;;26.75;;
50549;SDS011;36505;52.512;13.460;2024-03-02T03:30:17;57.42;;;29.15;;
50549;SDS011;36505;52.512;13.460;2024-03-02T03:32:42;58.30;;;29.55;;
50549;SDS011;36505;52.512;13.460;2024-03-02T03:35:08;52.38;;;28.63;;
50549;SDS011;36505;52.512;13.460;2024-03-02T03:37:33;55.60;;;27.45;;
50549;SDS011;36505;52.512;13.460;2024-03-02T03:39:59;54.90;;;27.73;;
50549;SDS011;36505;52.512;13.460;2024-03-02T03:42:26;54.30;;;27.00;;
50549;SDS011;36505;52.512;13.460;2024-03-02T03:44:51;45.83;;;26.65;;
50549;SDS011;36505;52.512;13.460;2024-03-02T03:47:17;52.35;;;26.50;;
50549;SDS011;36505;52.512;13.460;2024-03-02T03:49:42;49.30;;;26.67;;
50549;SDS011;36505;52.512;13.460;2024-03-02T03:52:08;49.33;;;26.27;;
50549;SDS011;36505;52.512;13.460;2024-03-02T03:54:33;48.28;;;26.60;;
50549;SDS011;36505;52.512;13.460;2024-03-02T03:56:58;56.17;;;28.48;;
50549;SDS011;36505;52.512;13.460;2024-03-02T03:59:24;50.83;;;26.75;;
50549;SDS011;36505;52.512;13.460;2024-03-02T04:01:49;54.58;;;27.17;;
50549;SDS011;36505;52.512;13.460;2024-03-02T04:04:14;46.47;;;25.73;;
50549;SDS011;36505;52.512;13.460;2024-03-02T04:06:40;47.63;;;25.77;;
50549;SDS011;36505;52.512;13.460;2024-03-02T04:09:05;44.00;;;24.85;;
50549;SDS011;36505;52.512;13.460;2024-03-02T04:11:31;44.42;;;24.75;;
50549;SDS011;36505;52.512;13.460;2024-03-02T04:13:56;46.13;;;25.58;;
50549;SDS011;36505;52.512;13.460;2024-03-02T04:16:22;42.83;;;23.90;;
50549;SDS011;36505;52.512;13.460;2024-03-02T04:18:47;51.30;;;26.27;;
50549;SDS011;36505;52.512;13.460;2024-03-02T04:21:13;47.90;;;25.83;;
50549;SDS011;36505;52.512;13.460;2024-03-02T04:23:38;52.90;;;25.02;;
50549;SDS011;36505;52.512;13.460;2024-03-02T04:26:04;42.90;;;23.13;;
50549;SDS011;36505;52.512;13.460;2024-03-02T04:28:29;46.35;;;24.15;;
50549;SDS011;36505;52.512;13.460;2024-03-02T04:30:54;44.15;;;23.48;;
50549;SDS011;36505;52.512;13.460;2024-03-02T04:33:20;45.88;;;25.23;;
50549;SDS011;36505;52.512;13.460;2024-03-02T04:35:45;45.67;;;23.02;;
50549;SDS011;36505;52.512;13.460;2024-03-02T04:38:11;43.47;;;24.25;;
50549;SDS011;36505;52.512;13.460;2024-03-02T04:40:37;42.17;;;23.27;;
50549;SDS011;36505;52.512;13.460;2024-03-02T04:43:02;44.65;;;23.88;;
50549;SDS011;36505;52.512;13.460;2024-03-02T04:45:28;49.17;;;25.70;;
50549;SDS011;36505;52.512;13.460;2024-03-02T04:47:54;41.80;;;22.42;;
50549;SDS011;36505;52.512;13.460;2024-03-02T04:50:19;45.58;;;23.38;;
50549;SDS011;36505;52.512;13.460;2024-03-02T04:52:45;44.92;;;22.60;;
50549;SDS011;36505;52.512;13.460;2024-03-02T04:55:10;40.58;;;23.17;;
50549;SDS011;36505;52.512;13.460;2024-03-02T04:57:41;38.42;;;21.40;;
50549;SDS011;36505;52.512;13.460;2024-03-02T05:00:07;44.70;;;24.38;;
50549;SDS011;36505;52.512;13.460;2024-03-02T05:02:34;40.53;;;22.77;;
50549;SDS011;36505;52.512;13.460;2024-03-02T05:04:59;41.28;;;21.67;;
50549;SDS011;36505;52.512;13.460;2024-03-02T05:07:25;43.40;;;22.00;;
50549;SDS011;36505;52.512;13.460;2024-03-02T05:09:50;40.58;;;23.42;;
50549;SDS011;36505;52.512;13.460;2024-03-02T05:12:15;43.75;;;22.35;;
50549;SDS011;36505;52.512;13.460;2024-03-02T05:14:44;47.65;;;23.67;;
50549;SDS011;36505;52.512;13.460;2024-03-02T05:17:09;36.53;;;20.88;;
50549;SDS011;36505;52.512;13.460;2024-03-02T05:19:34;41.53;;;21.50;;
50549;SDS011;36505;52.512;13.460;2024-03-02T05:22:00;42.53;;;22.90;;
50549;SDS011;36505;52.512;13.460;2024-03-02T05:24:25;37.90;;;21.23;;
50549;SDS011;36505;52.512;13.460;2024-03-02T05:26:52;44.42;;;21.02;;
50549;SDS011;36505;52.512;13.460;2024-03-02T05:29:18;47.83;;;24.30;;
50549;SDS011;36505;52.512;13.460;2024-03-02T05:31:43;42.83;;;23.30;;
50549;SDS011;36505;52.512;13.460;2024-03-02T05:34:09;49.63;;;22.90;;
50549;SDS011;36505;52.512;13.460;2024-03-02T05:36:34;39.30;;;21.83;;
50549;SDS011;36505;52.512;13.460;2024-03-02T05:39:00;46.53;;;23.27;;
50549;SDS011;36505;52.512;13.460;2024-03-02T05:41:25;43.17;;;24.08;;
50549;SDS011;36505;52.512;13.460;2024-03-02T05:43:50;43.05;;;22.77;;
50549;SDS011;36505;52.512;13.460;2024-03-02T05:46:16;39.72;;;21.85;;
50549;SDS011;36505;52.512;13.460;2024-03-02T05:48:41;43.78;;;22.08;;
50549;SDS011;36505;52.512;13.460;2024-03-02T05:51:07;39.88;;;22.77;;
50549;SDS011;36505;52.512;13.460;2024-03-02T05:53:33;44.15;;;23.52;;
50549;SDS011;36505;52.512;13.460;2024-03-02T05:55:58;43.53;;;23.70;;
50549;SDS011;36505;52.512;13.460;2024-03-02T05:58:24;48.75;;;25.05;;
50549;SDS011;36505;52.512;13.460;2024-03-02T06:00:49;46.47;;;24.50;;
50549;SDS011;36505;52.512;13.460;2024-03-02T06:03:15;41.25;;;23.10;;
50549;SDS011;36505;52.512;13.460;2024-03-02T06:05:40;42.88;;;23.30;;
50549;SDS011;36505;52.512;13.460;2024-03-02T06:08:06;43.03;;;24.23;;
50549;SDS011;36505;52.512;13.460;2024-03-02T06:10:32;42.28;;;22.70;;
50549;SDS011;36505;52.512;13.460;2024-03-02T06:12:57;41.85;;;23.20;;
50549;SDS011;36505;52.512;13.460;2024-03-02T06:15:24;45.08;;;24.75;;
50549;SDS011;36505;52.512;13.460;2024-03-02T06:17:49;44.95;;;23.35;;
50549;SDS011;36505;52.512;13.460;2024-03-02T06:20:15;44.65;;;23.63;;
50549;SDS011;36505;52.512;13.460;2024-03-02T06:22:40;47.95;;;24.33;;
50549;SDS011;36505;52.512;13.460;2024-03-02T06:25:06;45.53;;;24.42;;
50549;SDS011;36505;52.512;13.460;2024-03-02T06:27:32;51.90;;;23.80;;
50549;SDS011;36505;52.512;13.460;2024-03-02T06:29:57;44.00;;;23.83;;
50549;SDS011;36505;52.512;13.460;2024-03-02T06:32:23;47.67;;;23.73;;
50549;SDS011;36505;52.512;13.460;2024-03-02T06:34:50;44.17;;;24.00;;
50549;SDS011;36505;52.512;13.460;2024-03-02T06:37:15;43.50;;;22.83;;
50549;SDS011;36505;52.512;13.460;2024-03-02T06:39:41;37.55;;;22.55;;
50549;SDS011;36505;52.512;13.460;2024-03-02T06:42:06;48.38;;;24.60;;
50549;SDS011;36505;52.512;13.460;2024-03-02T06:44:32;53.22;;;25.83;;
50549;SDS011;36505;52.512;13.460;2024-03-02T06:46:57;52.58;;;26.85;;
50549;SDS011;36505;52.512;13.460;2024-03-02T06:49:22;43.10;;;23.88;;
50549;SDS011;36505;52.512;13.460;2024-03-02T06:51:48;52.20;;;25.50;;
50549;SDS011;36505;52.512;13.460;2024-03-02T06:54:13;52.08;;;25.55;;
50549;SDS011;36505;52.512;13.460;2024-03-02T06:56:38;49.28;;;26.73;;
50549;SDS011;36505;52.512;13.460;2024-03-02T06:59:04;48.03;;;25.08;;
50549;SDS011;36505;52.512;13.460;2024-03-02T07:01:29;50.30;;;26.33;;
50549;SDS011;36505;52.512;13.460;2024-03-02T07:03:55;51.25;;;24.98;;
50549;SDS011;36505;52.512;13.460;2024-03-02T07:06:20;46.10;;;24.35;;
50549;SDS011;36505;52.512;13.460;2024-03-02T07:08:45;44.55;;;23.27;;
50549;SDS011;36505;52.512;13.460;2024-03-02T07:11:11;50.53;;;24.27;;
50549;SDS011;36505;52.512;13.460;2024-03-02T07:13:36;52.08;;;24.70;;
50549;SDS011;36505;52.512;13.460;2024-03-02T07:16:02;47.22;;;25.67;;
50549;SDS011;36505;52.512;13.460;2024-03-02T07:18:27;45.22;;;24.92;;
50549;SDS011;36505;52.512;13.460;2024-03-02T07:20:52;61.88;;;32.55;;
50549;SDS011;36505;52.512;13.460;2024-03-02T07:23:18;49.22;;;25.52;;
50549;SDS011;36505;52.512;13.460;2024-03-02T07:25:45;53.22;;;26.63;;
50549;SDS011;36505;52.512;13.460;2024-03-02T07:28:10;56.97;;;27.00;;
50549;SDS011;36505;52.512;13.460;2024-03-02T07:30:36;50.25;;;25.85;;
50549;SDS011;36505;52.512;13.460;2024-03-02T07:33:03;49.63;;;25.67;;
50549;SDS011;36505;52.512;13.460;2024-03-02T07:35:29;49.08;;;26.17;;
50549;SDS011;36505;52.512;13.460;2024-03-02T07:37:56;49.33;;;24.40;;
50549;SDS011;36505;52.512;13.460;2024-03-02T07:40:22;45.55;;;25.40;;
50549;SDS011;36505;52.512;13.460;2024-03-02T07:42:48;51.97;;;27.02;;
50549;SDS011;36505;52.512;13.460;2024-03-02T07:45:13;49.50;;;24.58;;
50549;SDS011;36505;52.512;13.460;2024-03-02T07:47:39;49.35;;;24.30;;
50549;SDS011;36505;52.512;13.460;2024-03-02T07:50:05;46.45;;;26.08;;
50549;SDS011;36505;52.512;13.460;2024-03-02T07:52:34;47.60;;;25.50;;
50549;SDS011;36505;52.512;13.460;2024-03-02T07:54:59;56.22;;;27.63;;
50549;SDS011;36505;52.512;13.460;2024-03-02T07:57:25;48.78;;;26.15;;
50549;SDS011;36505;52.512;13.460;2024-03-02T07:59:50;50.80;;;26.42;;
50549;SDS011;36505;52.512;13.460;2024-03-02T08:02:16;50.22;;;26.88;;
50549;SDS011;36505;52.512;13.460;2024-03-02T08:04:42;59.03;;;27.50;;
50549;SDS011;36505;52.512;13.460;2024-03-02T08:07:07;53.47;;;25.35;;
50549;SDS011;36505;52.512;13.460;2024-03-02T08:09:34;51.05;;;25.80;;
50549;SDS011;36505;52.512;13.460;2024-03-02T08:11:59;51.38;;;25.67;;
50549;SDS011;36505;52.512;13.460;2024-03-02T08:14:25;53.08;;;25.92;;
50549;SDS011;36505;52.512;13.460;2024-03-02T08:16:50;48.47;;;25.67;;
50549;SDS011;36505;52.512;13.460;2024-03-02T08:19:16;54.90;;;26.77;;
50549;SDS011;36505;52.512;13.460;2024-03-02T08:21:42;46.42;;;25.08;;
50549;SDS011;36505;52.512;13.460;2024-03-02T08:24:08;43.58;;;23.98;;
50549;SDS011;36505;52.512;13.460;2024-03-02T08:26:33;50.28;;;27.00;;
50549;SDS011;36505;52.512;13.460;2024-03-02T08:28:59;52.22;;;26.38;;
50549;SDS011;36505;52.512;13.460;2024-03-02T08:31:26;46.80;;;25.45;;
50549;SDS011;36505;52.512;13.460;2024-03-02T08:33:52;46.03;;;24.50;;
50549;SDS011;36505;52.512;13.460;2024-03-02T08:36:17;49.85;;;26.15;;
50549;SDS011;36505;52.512;13.460;2024-03-02T08:38:44;55.97;;;26.70;;
50549;SDS011;36505;52.512;13.460;2024-03-02T08:41:09;56.33;;;28.02;;
50549;SDS011;36505;52.512;13.460;2024-03-02T08:43:34;51.95;;;25.30;;
50549;SDS011;36505;52.512;13.460;2024-03-02T08:46:00;49.58;;;26.38;;
50549;SDS011;36505;52.512;13.460;2024-03-02T08:51:32;45.42;;;25.23;;
50549;SDS011;36505;52.512;13.460;2024-03-02T08:54:26;49.50;;;25.52;;
50549;SDS011;36505;52.512;13.460;2024-03-02T08:57:01;46.88;;;24.73;;
50549;SDS011;36505;52.512;13.460;2024-03-02T08:59:38;54.63;;;26.55;;
50549;SDS011;36505;52.512;13.460;2024-03-02T09:02:17;47.63;;;24.10;;
50549;SDS011;36505;52.512;13.460;2024-03-02T09:04:45;48.20;;;25.13;;
50549;SDS011;36505;52.512;13.460;2024-03-02T09:07:28;45.40;;;23.45;;
50549;SDS011;36505;52.512;13.460;2024-03-02T09:10:10;47.75;;;24.38;;
50549;SDS011;36505;52.512;13.460;2024-03-02T09:15:28;49.15;;;26.70;;
50549;SDS011;36505;52.512;13.460;2024-03-02T09:17:53;54.22;;;27.85;;
50549;SDS011;36505;52.512;13.460;2024-03-02T09:20:19;55.45;;;26.52;;
50549;SDS011;36505;52.512;13.460;2024-03-02T09:22:44;53.83;;;26.23;;
50549;SDS011;36505;52.512;13.460;2024-03-02T09:25:12;47.00;;;24.25;;
50549;SDS011;36505;52.512;13.460;2024-03-02T09:27:38;48.55;;;26.35;;
50549;SDS011;36505;52.512;13.460;2024-03-02T09:30:10;54.22;;;25.52;;
50549;SDS011;36505;52.512;13.460;2024-03-02T09:32:36;47.00;;;25.30;;
50549;SDS011;36505;52.512;13.460;2024-03-02T09:35:02;44.15;;;24.33;;
50549;SDS011;36505;52.512;13.460;2024-03-02T09:37:28;44.03;;;25.17;;
50549;SDS011;36505;52.512;13.460;2024-03-02T09:39:53;50.70;;;23.40;;
50549;SDS011;36505;52.512;13.460;2024-03-02T09:42:19;43.58;;;23.55;;
50549;SDS011;36505;52.512;13.460;2024-03-02T09:44:45;48.33;;;25.00;;
50549;SDS011;36505;52.512;13.460;2024-03-02T09:47:11;44.70;;;23.08;;
50549;SDS011;36505;52.512;13.460;2024-03-02T09:49:36;47.67;;;24.27;;
50549;SDS011;36505;52.512;13.460;2024-03-02T09:52:01;44.17;;;23.25;;
50549;SDS011;36505;52.512;13.460;2024-03-02T09:54:28;41.60;;;23.50;;
50549;SDS011;36505;52.512;13.460;2024-03-02T09:56:53;45.25;;;24.98;;
50549;SDS011;36505;52.512;13.460;2024-03-02T09:59:19;46.50;;;23.42;;
50549;SDS011;36505;52.512;13.460;2024-03-02T10:01:58;44.20;;;24.40;;
50549;SDS011;36505;52.512;13.460;2024-03-02T10:04:27;44.45;;;24.15;;
50549;SDS011;36505;52.512;13.460;2024-03-02T10:07:09;47.08;;;23.30;;
50549;SDS011;36505;52.512;13.460;2024-03-02T10:09:39;40.58;;;22.05;;
50549;SDS011;36505;52.512;13.460;2024-03-02T10:12:09;45.47;;;22.95;;
50549;SDS011;36505;52.512;13.460;2024-03-02T10:14:36;40.28;;;21.42;;
50549;SDS011;36505;52.512;13.460;2024-03-02T10:17:02;42.97;;;23.17;;
50549;SDS011;36505;52.512;13.460;2024-03-02T10:19:29;45.13;;;24.23;;
50549;SDS011;36505;52.512;13.460;2024-03-02T10:22:00;40.60;;;22.33;;
50549;SDS011;36505;52.512;13.460;2024-03-02T10:24:44;43.58;;;22.40;;
50549;SDS011;36505;52.512;13.460;2024-03-02T10:27:11;42.88;;;22.73;;
50549;SDS011;36505;52.512;13.460;2024-03-02T10:29:40;42.05;;;22.30;;
50549;SDS011;36505;52.512;13.460;2024-03-02T10:32:09;44.13;;;24.08;;
50549;SDS011;36505;52.512;13.460;2024-03-02T10:34:36;46.60;;;24.40;;
50549;SDS011;36505;52.512;13.460;2024-03-02T10:37:02;41.92;;;22.90;;
50549;SDS011;36505;52.512;13.460;2024-03-02T10:39:28;42.80;;;21.42;;
50549;SDS011;36505;52.512;13.460;2024-03-02T10:41:55;41.30;;;22.08;;
50549;SDS011;36505;52.512;13.460;2024-03-02T10:44:21;40.97;;;21.13;;
50549;SDS011;36505;52.512;13.460;2024-03-02T10:46:47;35.70;;;20.60;;
50549;SDS011;36505;52.512;13.460;2024-03-02T10:49:15;39.67;;;21.27;;
50549;SDS011;36505;52.512;13.460;2024-03-02T10:51:42;38.25;;;21.70;;
50549;SDS011;36505;52.512;13.460;2024-03-02T10:54:07;38.25;;;19.75;;
50549;SDS011;36505;52.512;13.460;2024-03-02T10:56:34;32.38;;;17.33;;
50549;SDS011;36505;52.512;13.460;2024-03-02T10:59:24;32.15;;;18.05;;
50549;SDS011;36505;52.512;13.460;2024-03-02T11:01:53;30.10;;;16.35;;
50549;SDS011;36505;52.512;13.460;2024-03-02T11:04:24;30.98;;;16.38;;
50549;SDS011;36505;52.512;13.460;2024-03-02T11:06:50;32.55;;;16.98;;
50549;SDS011;36505;52.512;13.460;2024-03-02T11:09:22;36.28;;;17.15;;
50549;SDS011;36505;52.512;13.460;2024-03-02T11:11:57;28.70;;;16.73;;
50549;SDS011;36505;52.512;13.460;2024-03-02T11:14:27;31.45;;;16.08;;
50549;SDS011;36505;52.512;13.460;2024-03-02T11:16:57;25.60;;;15.23;;
50549;SDS011;36505;52.512;13.460;2024-03-02T11:19:23;28.02;;;15.02;;
50549;SDS011;36505;52.512;13.460;2024-03-02T11:21:50;26.33;;;14.73;;
50549;SDS011;36505;52.512;13.460;2024-03-02T11:27:09;23.30;;;13.48;;
50549;SDS011;36505;52.512;13.460;2024-03-02T11:32:04;27.13;;;13.20;;
50549;SDS011;36505;52.512;13.460;2024-03-02T11:34:31;25.08;;;13.55;;
50549;SDS011;36505;52.512;13.460;2024-03-02T11:36:58;28.00;;;14.40;;
50549;SDS011;36505;52.512;13.460;2024-03-02T11:39:33;25.08;;;13.93;;
50549;SDS011;36505;52.512;13.460;2024-03-02T11:41:59;25.30;;;14.52;;
50549;SDS011;36505;52.512;13.460;2024-03-02T11:44:25;24.83;;;13.43;;
50549;SDS011;36505;52.512;13.460;2024-03-02T11:46:52;23.95;;;13.02;;
50549;SDS011;36505;52.512;13.460;2024-03-02T11:52:07;25.17;;;12.98;;
50549;SDS011;36505;52.512;13.460;2024-03-02T11:54:34;27.90;;;13.55;;
50549;SDS011;36505;52.512;13.460;2024-03-02T11:57:02;24.15;;;13.77;;
50549;SDS011;36505;52.512;13.460;2024-03-02T11:59:28;22.88;;;12.63;;
50549;SDS011;36505;52.512;13.460;2024-03-02T12:01:55;22.75;;;13.88;;
50549;SDS011;36505;52.512;13.460;2024-03-02T12:04:21;21.77;;;13.10;;
50549;SDS011;36505;52.512;13.460;2024-03-02T12:06:48;24.08;;;13.40;;
50549;SDS011;36505;52.512;13.460;2024-03-02T12:09:20;26.40;;;13.65;;
50549;SDS011;36505;52.512;13.460;2024-03-02T12:11:46;20.35;;;12.20;;
50549;SDS011;36505;52.512;13.460;2024-03-02T12:14:11;22.42;;;12.70;;
50549;SDS011;36505;52.512;13.460;2024-03-02T12:16:43;22.23;;;12.73;;
50549;SDS011;36505;52.512;13.460;2024-03-02T12:19:11;22.03;;;12.23;;
50549;SDS011;36505;52.512;13.460;2024-03-02T12:21:37;23.08;;;12.68;;
50549;SDS011;36505;52.512;13.460;2024-03-02T12:24:03;18.55;;;10.68;;
50549;SDS011;36505;52.512;13.460;2024-03-02T12:26:29;20.88;;;12.25;;
50549;SDS011;36505;52.512;13.460;2024-03-02T12:28:57;20.08;;;11.70;;
50549;SDS011;36505;52.512;13.460;2024-03-02T12:31:23;23.85;;;12.77;;
50549;SDS011;36505;52.512;13.460;2024-03-02T12:33:48;18.50;;;10.60;;
50549;SDS011;36505;52.512;13.460;2024-03-02T12:36:14;21.42;;;11.40;;
50549;SDS011;36505;52.512;13.460;2024-03-02T12:38:43;17.75;;;10.45;;
50549;SDS011;36505;52.512;13.460;2024-03-02T12:41:09;18.65;;;10.23;;
50549;SDS011;36505;52.512;13.460;2024-03-02T12:43:34;20.00;;;10.27;;
50549;SDS011;36505;52.512;13.460;2024-03-02T12:46:00;18.73;;;10.75;;
50549;SDS011;36505;52.512;13.460;2024-03-02T12:48:25;18.33;;;9.27;;
50549;SDS011;36505;52.512;13.460;2024-03-02T12:50:51;19.67;;;10.82;;
50549;SDS011;36505;52.512;13.460;2024-03-02T12:53:16;18.35;;;10.60;;
50549;SDS011;36505;52.512;13.460;2024-03-02T12:55:42;20.70;;;10.10;;
50549;SDS011;36505;52.512;13.460;2024-03-02T12:58:15;16.05;;;9.25;;
50549;SDS011;36505;52.512;13.460;2024-03-02T13:00:42;17.05;;;9.68;;
50549;SDS011;36505;52.512;13.460;2024-03-02T13:03:07;18.30;;;10.43;;
50549;SDS011;36505;52.512;13.460;2024-03-02T13:05:32;17.42;;;9.38;;
50549;SDS011;36505;52.512;13.460;2024-03-02T13:07:58;16.42;;;8.90;;
50549;SDS011;36505;52.512;13.460;2024-03-02T13:10:28;17.42;;;9.27;;
50549;SDS011;36505;52.512;13.460;2024-03-02T13:12:57;19.23;;;9.63;;
50549;SDS011;36505;52.512;13.460;2024-03-02T13:15:22;15.95;;;8.93;;
50549;SDS011;36505;52.512;13.460;2024-03-02T13:17:48;16.23;;;9.55;;
50549;SDS011;36505;52.512;13.460;2024-03-02T13:20:14;15.77;;;8.75;;
50549;SDS011;36505;52.512;13.460;2024-03-02T13:22:39;15.90;;;8.93;;
50549;SDS011;36505;52.512;13.460;2024-03-02T13:25:05;15.48;;;8.07;;
50549;SDS011;36505;52.512;13.460;2024-03-02T13:27:34;18.17;;;9.35;;
50549;SDS011;36505;52.512;13.460;2024-03-02T13:29:59;15.07;;;8.50;;
50549;SDS011;36505;52.512;13.460;2024-03-02T13:32:26;16.48;;;8.60;;
50549;SDS011;36505;52.512;13.460;2024-03-02T13:34:51;13.82;;;8.35;;
50549;SDS011;36505;52.512;13.460;2024-03-02T13:37:17;14.88;;;8.70;;
50549;SDS011;36505;52.512;13.460;2024-03-02T13:39:42;18.90;;;11.10;;
50549;SDS011;36505;52.512;13.460;2024-03-02T13:42:08;15.55;;;8.95;;
50549;SDS011;36505;52.512;13.460;2024-03-02T13:44:35;15.60;;;8.65;;
50549;SDS011;36505;52.512;13.460;2024-03-02T13:47:01;15.93;;;8.63;;
50549;SDS011;36505;52.512;13.460;2024-03-02T13:49:27;17.20;;;10.18;;
50549;SDS011;36505;52.512;13.460;2024-03-02T13:51:58;18.98;;;9.20;;
50549;SDS011;36505;52.512;13.460;2024-03-02T13:54:25;14.98;;;9.07;;
50549;SDS011;36505;52.512;13.460;2024-03-02T13:56:51;15.95;;;8.77;;
50549;SDS011;36505;52.512;13.460;2024-03-02T13:59:17;13.10;;;8.13;;
50549;SDS011;36505;52.512;13.460;2024-03-02T14:01:42;13.90;;;8.00;;
50549;SDS011;36505;52.512;13.460;2024-03-02T14:04:09;14.65;;;8.40;;
50549;SDS011;36505;52.512;13.460;2024-03-02T14:06:35;13.32;;;8.02;;
50549;SDS011;36505;52.512;13.460;2024-03-02T14:09:00;11.93;;;7.18;;
50549;SDS011;36505;52.512;13.460;2024-03-02T14:11:25;16.55;;;8.45;;
50549;SDS011;36505;52.512;13.460;2024-03-02T14:13:51;15.18;;;7.72;;
50549;SDS011;36505;52.512;13.460;2024-03-02T14:16:19;12.07;;;7.28;;
50549;SDS011;36505;52.512;13.460;2024-03-02T14:18:45;10.68;;;6.75;;
50549;SDS011;36505;52.512;13.460;2024-03-02T14:21:11;17.73;;;8.25;;
50549;SDS011;36505;52.512;13.460;2024-03-02T14:23:36;12.48;;;7.97;;
50549;SDS011;36505;52.512;13.460;2024-03-02T14:26:02;15.05;;;7.55;;
50549;SDS011;36505;52.512;13.460;2024-03-02T14:28:27;13.57;;;7.13;;
50549;SDS011;36505;52.512;13.460;2024-03-02T14:30:53;12.73;;;7.30;;